Ship Status Report: callsign BAREU51

sailwx.info

Track history (hours):
 
Tides and Currents Weather Stations Pressure Air Temp Water Temp Dewpoint Dewpoint Depression Visibility Wind Speed Wind Dir Waves Ship Positions

Callsign BAREU51 (name unknown)

Last reported at 2015-May-22 15:00 UTC. Time now 2015-May-22 16:07 UTC.
Position N 38°36' E 013°06'.

Barometer 1013.7 mb
Air temperature 17.4 ° C

Date/timePositionNaut miles runAvg speedWind from/ knotsBaromVisibWave heightAir tempDewpointWater temp
2015-May-22 15:00N 38°36' E 013°06'2020.3 1013.7 17.4
2015-May-22 14:00N 38°54' E 012°54'2827.8 1012.8 17.7
2015-May-22 13:00N 39°18' E 012°36'2020.2 1013.1 16.8
2015-May-22 12:00N 39°36' E 012°24'2827.7 1012.9 16.5
2015-May-22 11:00N 40°00' E 012°06'2020.2 1012.1 14.3
2015-May-22 10:00N 40°18' E 011°54'2625.7 1013.5 16.7
2015-May-22 09:00N 40°42' E 011°42'2020.2 1013.0 15.9
2015-May-22 08:00N 41°00' E 011°30'2827.6 1012.9 15.2
2015-May-22 07:00N 41°24' E 011°12'2020.1 1012.7 14.4
2015-May-22 06:00N 41°42' E 011°00'2020.1 1011.8 14.7
2015-May-22 05:00N 42°00' E 010°48'2625.6 1012.0 15.9
2015-May-22 04:00N 42°24' E 010°36'2121.4 1011.2 15.1
2015-May-22 03:00N 42°36' E 010°12'2625.6 1013.0 14.5
2015-May-22 02:00N 43°00' E 010°00'2020.0 1014.4 15.0
2015-May-22 01:00N 43°18' E 009°48'2727.3 1014.9 14.3
2015-May-22 00:00N 43°42' E 009°30'2222.2 1015.1 15.5
2015-May-21 23:00N 44°00' E 009°12'2020.0 1015.8 15.9
2015-May-21 22:00N 44°18' E 009°00'7 1.5 1016.8 14.7
2015-May-21 17:00N 44°24' E 008°54'2222.1 1015.7 13.1
2015-May-21 16:00N 44°06' E 009°12'2222.2 1014.0 16.7
2015-May-21 15:00N 43°48' E 009°30'2625.5 1013.3 14.7
2015-May-21 14:00N 43°24' E 009°42'2222.3 1013.2 15.4
2015-May-21 13:00N 43°06' E 010°00'1818.0 1012.9 15.7
2015-May-21 12:00N 42°48' E 010°00'2525.2 1012.1 17.2
2015-May-21 11:00N 42°30' E 010°24'2222.4 1013.4 18.4
2015-May-21 10:00N 42°12' E 010°42'2020.1 1012.2 16.5
2015-May-21 09:00N 41°54' E 010°54'2625.6 1011.2 16.0
2015-May-21 08:00N 41°30' E 011°06'2322.5 1012.8 16.0
2015-May-21 07:00N 41°12' E 011°24'2020.1 1013.6 16.6
2015-May-21 06:00N 40°54' E 011°36'2020.2 1014.3 16.8
2015-May-21 05:00N 40°36' E 011°48'2625.7 1014.6 17.1
2015-May-21 04:00N 40°12' E 012°00'2020.2 1015.5 15.4
2015-May-21 03:00N 39°54' E 012°12'2322.7 1014.9 16.6
2015-May-21 02:00N 39°36' E 012°30'2625.7 1014.3 18.8
2015-May-21 01:00N 39°12' E 012°42'2020.3 1014.1 19.4
2015-May-21 00:00N 38°54' E 012°54'2020.3 1013.2 20.0
2015-May-20 23:00N 38°36' E 013°06'2827.8 1013.9 19.5
2015-May-20 22:00N 38°12' E 013°24'6 1.0 1013.9 20.1
2015-May-20 16:00N 38°06' E 013°24'2625.8 1012.5 23.2
2015-May-20 15:00N 38°30' E 013°12'2020.3 1012.5 21.3
2015-May-20 14:00N 38°48' E 013°00'2322.8 1012.2 22.8
2015-May-20 13:00N 39°06' E 012°42'2625.7 1011.3 22.3
2015-May-20 12:00N 39°30' E 012°30'2020.2 1011.4 21.9
2015-May-20 11:00N 39°48' E 012°18'2827.7 1011.2 21.0
2015-May-20 10:00N 40°12' E 012°00'2020.2 1011.0 21.1
2015-May-20 09:00N 40°30' E 011°48'2625.7 1010.2 20.6
2015-May-20 08:00N 40°54' E 011°36'2322.5 1011.0 19.7
2015-May-20 07:00N 41°12' E 011°18'2625.6 1010.7 19.1
2015-May-20 06:00N 41°36' E 011°06'2020.1 1010.5 18.4
2015-May-20 05:00N 41°54' E 010°54'2222.4 1009.7 18.0
2015-May-20 04:00N 42°12' E 010°36'2020.1 1008.5 18.1
2015-May-20 03:00N 42°30' E 010°24'2525.2 1008.9 18.4
2015-May-20 02:00N 42°48' E 010°00'2424.4 1008.6 19.0
2015-May-20 01:00N 43°12' E 009°54'2020.0 1009.4 18.4
2015-May-20 00:00N 43°30' E 009°42'2222.2 1008.3 18.3
2015-May-19 23:00N 43°48' E 009°24'2222.2 1008.8 17.7
2015-May-19 22:00N 44°06' E 009°06'19 3.1 1008.5 17.7
2015-May-19 16:00N 44°24' E 009°00'2525.5 1009.4 19.5
2015-May-19 15:00N 44°00' E 009°12'2222.2 1009.4 19.7
2015-May-19 14:00N 43°42' E 009°30'2222.2 1009.7 19.4
2015-May-19 13:00N 43°24' E 009°48'2625.5 1010.6 19.2
2015-May-19 12:00N 43°00' E 010°00'2020.0 1010.4 19.4
2015-May-19 11:00N 42°42' E 010°12'2222.4 1010.3 21.1
2015-May-19 10:00N 42°24' E 010°30'2222.4 1009.4 20.2
2015-May-19 09:00N 42°06' E 010°48'2625.6 1009.0 20.5
2015-May-19 08:00N 41°42' E 011°00'2020.1 1009.4 20.2
2015-May-19 07:00N 41°24' E 011°12'2827.6 1009.0 19.6
2015-May-19 06:00N 41°00' E 011°30'2020.2 1009.2 19.1
2015-May-19 05:00N 40°42' E 011°42'2020.2 1009.3 19.3
2015-May-19 04:00N 40°24' E 011°54'4823.9 1009.5 18.8
2015-May-19 02:00N 39°42' E 012°24'2625.7 1010.0 19.1
2015-May-19 01:00N 39°18' E 012°36'2020.3 1010.3 19.0
2015-May-19 00:00N 39°00' E 012°48'2322.8 1010.1 19.2
2015-May-18 23:00N 38°42' E 013°06'2020.3 1010.6 19.0
2015-May-18 22:00N 38°24' E 013°18'19 1.2 1011.3 18.8
2015-May-18 06:00N 38°06' E 013°24'6 0.4 1010.8 17.8
2015-May-17 16:00N 38°12' E 013°24'1312.9 1009.9 14.6
2015-May-17 15:00N 38°24' E 013°18'2322.9 1010.3 14.6
2015-May-17 14:00N 38°42' E 013°00'2625.8 1011.0 16.2
2015-May-17 13:00N 39°06' E 012°48'2322.8 1011.4 18.3
2015-May-17 12:00N 39°24' E 012°30'2625.7 1011.3 16.8
2015-May-17 11:00N 39°48' E 012°18'2020.2 1010.5 19.8
2015-May-17 10:00N 40°06' E 012°06'2020.2 1011.3 20.0
2015-May-17 09:00N 40°24' E 011°54'2827.6 1012.1 20.1
2015-May-17 08:00N 40°48' E 011°36'2020.2 1012.5 19.7
2015-May-17 07:00N 41°06' E 011°24'2625.6 1013.1 19.6
2015-May-17 06:00N 41°30' E 011°12'2222.5 1013.7 18.7
2015-May-17 05:00N 41°48' E 010°54'2625.6 1014.4 18.4
2015-May-17 04:00N 42°12' E 010°42'2222.4 1014.3 18.2
2015-May-17 03:00N 42°30' E 010°24'2525.2 1014.6 18.2
2015-May-17 02:00N 42°48' E 010°00'1918.5 1016.9 18.2
2015-May-17 01:00N 43°06' E 009°54'2625.5 1017.7 18.0
2015-May-17 00:00N 43°30' E 009°42'2222.2 1018.1 18.0
2015-May-16 23:00N 43°48' E 009°24'2222.2 1018.9 18.1
2015-May-16 22:00N 44°06' E 009°06'19 3.1 1018.9 18.0
2015-May-16 16:00N 44°24' E 009°00'2019.9 1017.8 19.8
2015-May-16 15:00N 44°06' E 009°12'2727.3 1017.2 20.1
2015-May-16 14:00N 43°42' E 009°30'2222.2 1017.4 18.9
2015-May-16 13:00N 43°24' E 009°48'2020.0 1016.9 18.6
2015-May-16 12:00N 43°06' E 010°00'2424.4 1016.9 18.1
2015-May-16 11:00N 42°42' E 010°06'2525.2 1017.0 19.0
2015-May-16 10:00N 42°24' E 010°30'2020.1 1016.3 18.0
2015-May-16 09:00N 42°06' E 010°42'2222.4 1015.5 18.0
2015-May-16 08:00N 41°48' E 011°00'2625.6 1014.9 18.2
2015-May-16 07:00N 41°24' E 011°12'2020.1 1014.8 17.2
2015-May-16 06:00N 41°06' E 011°24'2827.6 1014.9 16.5
2015-May-16 05:00N 40°42' E 011°42'2020.2 1014.3 16.4
2015-May-16 04:00N 40°24' E 011°54'2827.7 1014.3 16.6
2015-May-16 03:00N 40°00' E 012°12'2020.2 1014.9 16.9
2015-May-16 02:00N 39°42' E 012°24'2625.7 1015.0 16.1
2015-May-16 01:00N 39°18' E 012°36'2020.3 1013.3 17.9
2015-May-16 00:00N 39°00' E 012°48'2322.8 1014.8 18.6
2015-May-15 23:00N 38°42' E 013°06'2625.8 1014.3 19.3
2015-May-15 22:00N 38°18' E 013°18'8 1.5 1013.4 19.0
2015-May-15 17:00N 38°12' E 013°24'2020.3 1007.0 30.4
2015-May-15 16:00N 38°30' E 013°12'2020.3 1005.2 26.1
2015-May-15 15:00N 38°48' E 013°00'2322.8 1006.2 23.6
2015-May-15 14:00N 39°06' E 012°42'2625.7 1004.6 22.7
2015-May-15 13:00N 39°30' E 012°30'2020.2 1003.9 22.0
2015-May-15 12:00N 39°48' E 012°18'2020.2 1003.9 21.3
2015-May-15 11:00N 40°06' E 012°06'2020.2 1003.1 21.7
2015-May-15 10:00N 40°24' E 011°54'2827.6 1005.1 21.2
2015-May-15 09:00N 40°48' E 011°36'2020.2 1004.1 20.4
2015-May-15 08:00N 41°06' E 011°24'2020.1 1005.5 20.1
2015-May-15 07:00N 41°24' E 011°12'2020.1 1006.0 19.3
2015-May-15 06:00N 41°42' E 011°00'2625.6 1005.5 19.0
2015-May-15 05:00N 42°06' E 010°48'2222.4 1005.0 19.0
2015-May-15 04:00N 42°24' E 010°30'1817.9 1005.4 19.1
2015-May-15 03:00N 42°36' E 010°12'2625.6 1005.3 19.0
2015-May-15 02:00N 43°00' E 010°00'2020.0 1006.7 19.1
2015-May-15 01:00N 43°18' E 009°48'2020.0 1005.9 19.1
2015-May-15 00:00N 43°36' E 009°36'2222.2 1006.3 18.7
2015-May-14 23:00N 43°54' E 009°18'2727.3 1010.1 18.8
2015-May-14 22:00N 44°18' E 009°00'6 1.0 1008.3 18.5
2015-May-14 16:00N 44°24' E 009°00'2019.9 1010.0 19.4
2015-May-14 15:00N 44°06' E 009°12'2727.3 1010.5 19.7
2015-May-14 14:00N 43°42' E 009°30'2222.2 1011.4 20.0
2015-May-14 13:00N 43°24' E 009°48'2020.0 1012.8 20.2
2015-May-14 12:00N 43°06' E 010°00'2424.4 1013.2 20.9
2015-May-14 11:00N 42°42' E 010°06'2525.2 1013.1 19.9
2015-May-14 10:00N 42°24' E 010°30'2020.1 1014.3 20.6
2015-May-14 09:00N 42°06' E 010°42'2222.4 1014.2 20.7
2015-May-14 08:00N 41°48' E 011°00'2625.6 1013.3 19.6
2015-May-14 07:00N 41°24' E 011°12'2020.1 1015.6 20.5
2015-May-14 06:00N 41°06' E 011°24'2827.6 1016.0 19.8
2015-May-14 05:00N 40°42' E 011°42'2020.2 1016.9 18.9
2015-May-14 04:00N 40°24' E 011°54'6822.7 1017.0 19.1
2015-May-14 01:00N 39°24' E 012°36'2625.7 1019.0 19.4
2015-May-14 00:00N 39°00' E 012°48'2020.3 1020.2 19.2
2015-May-13 23:00N 38°42' E 013°00'2322.9 1021.4 19.2
2015-May-13 22:00N 38°24' E 013°18'19 3.1 1021.9 19.6
2015-May-13 16:00N 38°06' E 013°24'2625.8 1023.3 23.4
2015-May-13 15:00N 38°30' E 013°12'2020.3 1023.3 22.4
2015-May-13 14:00N 38°48' E 013°00'2322.8 1023.4 21.0
2015-May-13 13:00N 39°06' E 012°42'2625.7 1023.6 20.8
2015-May-13 12:00N 39°30' E 012°30'2020.2 1023.7 20.8
2015-May-13 11:00N 39°48' E 012°18'2827.7 1023.8 20.2
2015-May-13 10:00N 40°12' E 012°00'2020.2 1023.8 20.1
2015-May-13 09:00N 40°30' E 011°48'2020.2 1024.1 19.9
2015-May-13 08:00N 40°48' E 011°36'2625.7 1024.3 17.3
2015-May-13 07:00N 41°12' E 011°24'2322.5 1023.9 16.1
2015-May-13 06:00N 41°30' E 011°06'2625.6 1023.1 17.4
2015-May-13 05:00N 41°54' E 010°54'2020.1 1023.1 18.4
2015-May-13 04:00N 42°12' E 010°42'2222.4 1023.0 18.6
2015-May-13 03:00N 42°30' E 010°24'2525.2 1022.8 18.8
2015-May-13 02:00N 42°48' E 010°00'1918.5 1022.7 18.8
2015-May-13 01:00N 43°06' E 009°54'2625.5 1023.3 19.0
2015-May-13 00:00N 43°30' E 009°42'2222.2 1023.3 18.8
2015-May-12 23:00N 43°48' E 009°24'2222.2 1023.4 18.6
2015-May-12 22:00N 44°06' E 009°06'19 3.1 1023.6 18.6
2015-May-12 16:00N 44°24' E 009°00'2019.9 1024.1 20.6
2015-May-12 15:00N 44°06' E 009°12'   1023.8 20.2
Track history (hours):
 
Tides and Currents Weather Stations Pressure Air Temp Water Temp Dewpoint Dewpoint Depression Visibility Wind Speed Wind Dir Waves Ship Positions

Callsign BAREU51 (name unknown)

Last reported at 2015-May-22 15:00 UTC. Time now 2015-May-22 16:07 UTC.
Position N 38°36' E 013°06'.

Barometer 1013.7 mb
Air temperature 17.4 ° C

Date/timePositionNaut miles runAvg speedWind from/ knotsBaromVisibWave heightAir tempDewpointWater temp
2015-May-22 15:00N 38°36' E 013°06'2020.3 1013.7 17.4
2015-May-22 14:00N 38°54' E 012°54'2827.8 1012.8 17.7
2015-May-22 13:00N 39°18' E 012°36'2020.2 1013.1 16.8
2015-May-22 12:00N 39°36' E 012°24'2827.7 1012.9 16.5
2015-May-22 11:00N 40°00' E 012°06'2020.2 1012.1 14.3
2015-May-22 10:00N 40°18' E 011°54'2625.7 1013.5 16.7
2015-May-22 09:00N 40°42' E 011°42'2020.2 1013.0 15.9
2015-May-22 08:00N 41°00' E 011°30'2827.6 1012.9 15.2
2015-May-22 07:00N 41°24' E 011°12'2020.1 1012.7 14.4
2015-May-22 06:00N 41°42' E 011°00'2020.1 1011.8 14.7
2015-May-22 05:00N 42°00' E 010°48'2625.6 1012.0 15.9
2015-May-22 04:00N 42°24' E 010°36'2121.4 1011.2 15.1
2015-May-22 03:00N 42°36' E 010°12'2625.6 1013.0 14.5
2015-May-22 02:00N 43°00' E 010°00'2020.0 1014.4 15.0
2015-May-22 01:00N 43°18' E 009°48'2727.3 1014.9 14.3
2015-May-22 00:00N 43°42' E 009°30'2222.2 1015.1 15.5
2015-May-21 23:00N 44°00' E 009°12'2020.0 1015.8 15.9
2015-May-21 22:00N 44°18' E 009°00'7 1.5 1016.8 14.7
2015-May-21 17:00N 44°24' E 008°54'2222.1 1015.7 13.1
2015-May-21 16:00N 44°06' E 009°12'2222.2 1014.0 16.7
2015-May-21 15:00N 43°48' E 009°30'2625.5 1013.3 14.7
2015-May-21 14:00N 43°24' E 009°42'2222.3 1013.2 15.4
2015-May-21 13:00N 43°06' E 010°00'1818.0 1012.9 15.7
2015-May-21 12:00N 42°48' E 010°00'2525.2 1012.1 17.2
2015-May-21 11:00N 42°30' E 010°24'2222.4 1013.4 18.4
2015-May-21 10:00N 42°12' E 010°42'2020.1 1012.2 16.5
2015-May-21 09:00N 41°54' E 010°54'2625.6 1011.2 16.0
2015-May-21 08:00N 41°30' E 011°06'2322.5 1012.8 16.0
2015-May-21 07:00N 41°12' E 011°24'2020.1 1013.6 16.6
2015-May-21 06:00N 40°54' E 011°36'2020.2 1014.3 16.8
2015-May-21 05:00N 40°36' E 011°48'2625.7 1014.6 17.1
2015-May-21 04:00N 40°12' E 012°00'2020.2 1015.5 15.4
2015-May-21 03:00N 39°54' E 012°12'2322.7 1014.9 16.6
2015-May-21 02:00N 39°36' E 012°30'2625.7 1014.3 18.8
2015-May-21 01:00N 39°12' E 012°42'2020.3 1014.1 19.4
2015-May-21 00:00N 38°54' E 012°54'2020.3 1013.2 20.0
2015-May-20 23:00N 38°36' E 013°06'2827.8 1013.9 19.5
2015-May-20 22:00N 38°12' E 013°24'6 1.0 1013.9 20.1
2015-May-20 16:00N 38°06' E 013°24'2625.8 1012.5 23.2
2015-May-20 15:00N 38°30' E 013°12'2020.3 1012.5 21.3
2015-May-20 14:00N 38°48' E 013°00'2322.8 1012.2 22.8
2015-May-20 13:00N 39°06' E 012°42'2625.7 1011.3 22.3
2015-May-20 12:00N 39°30' E 012°30'2020.2 1011.4 21.9
2015-May-20 11:00N 39°48' E 012°18'2827.7 1011.2 21.0
2015-May-20 10:00N 40°12' E 012°00'2020.2 1011.0 21.1
2015-May-20 09:00N 40°30' E 011°48'2625.7 1010.2 20.6
2015-May-20 08:00N 40°54' E 011°36'2322.5 1011.0 19.7
2015-May-20 07:00N 41°12' E 011°18'2625.6 1010.7 19.1
2015-May-20 06:00N 41°36' E 011°06'2020.1 1010.5 18.4
2015-May-20 05:00N 41°54' E 010°54'2222.4 1009.7 18.0
2015-May-20 04:00N 42°12' E 010°36'2020.1 1008.5 18.1
2015-May-20 03:00N 42°30' E 010°24'2525.2 1008.9 18.4
2015-May-20 02:00N 42°48' E 010°00'2424.4 1008.6 19.0
2015-May-20 01:00N 43°12' E 009°54'2020.0 1009.4 18.4
2015-May-20 00:00N 43°30' E 009°42'2222.2 1008.3 18.3
2015-May-19 23:00N 43°48' E 009°24'2222.2 1008.8 17.7
2015-May-19 22:00N 44°06' E 009°06'19 3.1 1008.5 17.7
2015-May-19 16:00N 44°24' E 009°00'2525.5 1009.4 19.5
2015-May-19 15:00N 44°00' E 009°12'2222.2 1009.4 19.7
2015-May-19 14:00N 43°42' E 009°30'2222.2 1009.7 19.4
2015-May-19 13:00N 43°24' E 009°48'2625.5 1010.6 19.2
2015-May-19 12:00N 43°00' E 010°00'2020.0 1010.4 19.4
2015-May-19 11:00N 42°42' E 010°12'2222.4 1010.3 21.1
2015-May-19 10:00N 42°24' E 010°30'2222.4 1009.4 20.2
2015-May-19 09:00N 42°06' E 010°48'2625.6 1009.0 20.5
2015-May-19 08:00N 41°42' E 011°00'2020.1 1009.4 20.2
2015-May-19 07:00N 41°24' E 011°12'2827.6 1009.0 19.6
2015-May-19 06:00N 41°00' E 011°30'2020.2 1009.2 19.1
2015-May-19 05:00N 40°42' E 011°42'2020.2 1009.3 19.3
2015-May-19 04:00N 40°24' E 011°54'4823.9 1009.5 18.8
2015-May-19 02:00N 39°42' E 012°24'2625.7 1010.0 19.1
2015-May-19 01:00N 39°18' E 012°36'2020.3 1010.3 19.0
2015-May-19 00:00N 39°00' E 012°48'2322.8 1010.1 19.2
2015-May-18 23:00N 38°42' E 013°06'2020.3 1010.6 19.0
2015-May-18 22:00N 38°24' E 013°18'19 1.2 1011.3 18.8
2015-May-18 06:00N 38°06' E 013°24'6 0.4 1010.8 17.8
2015-May-17 16:00N 38°12' E 013°24'1312.9 1009.9 14.6
2015-May-17 15:00N 38°24' E 013°18'2322.9 1010.3 14.6
2015-May-17 14:00N 38°42' E 013°00'2625.8 1011.0 16.2
2015-May-17 13:00N 39°06' E 012°48'2322.8 1011.4 18.3
2015-May-17 12:00N 39°24' E 012°30'2625.7 1011.3 16.8
2015-May-17 11:00N 39°48' E 012°18'2020.2 1010.5 19.8
2015-May-17 10:00N 40°06' E 012°06'2020.2 1011.3 20.0
2015-May-17 09:00N 40°24' E 011°54'2827.6 1012.1 20.1
2015-May-17 08:00N 40°48' E 011°36'2020.2 1012.5 19.7
2015-May-17 07:00N 41°06' E 011°24'2625.6 1013.1 19.6
2015-May-17 06:00N 41°30' E 011°12'2222.5 1013.7 18.7
2015-May-17 05:00N 41°48' E 010°54'2625.6 1014.4 18.4
2015-May-17 04:00N 42°12' E 010°42'2222.4 1014.3 18.2
2015-May-17 03:00N 42°30' E 010°24'2525.2 1014.6 18.2
2015-May-17 02:00N 42°48' E 010°00'1918.5 1016.9 18.2
2015-May-17 01:00N 43°06' E 009°54'2625.5 1017.7 18.0
2015-May-17 00:00N 43°30' E 009°42'2222.2 1018.1 18.0
2015-May-16 23:00N 43°48' E 009°24'2222.2 1018.9 18.1
2015-May-16 22:00N 44°06' E 009°06'19 3.1 1018.9 18.0
2015-May-16 16:00N 44°24' E 009°00'2019.9 1017.8 19.8
2015-May-16 15:00N 44°06' E 009°12'2727.3 1017.2 20.1
2015-May-16 14:00N 43°42' E 009°30'2222.2 1017.4 18.9
2015-May-16 13:00N 43°24' E 009°48'2020.0 1016.9 18.6
2015-May-16 12:00N 43°06' E 010°00'2424.4 1016.9 18.1
2015-May-16 11:00N 42°42' E 010°06'2525.2 1017.0 19.0
2015-May-16 10:00N 42°24' E 010°30'2020.1 1016.3 18.0
2015-May-16 09:00N 42°06' E 010°42'2222.4 1015.5 18.0
2015-May-16 08:00N 41°48' E 011°00'2625.6 1014.9 18.2
2015-May-16 07:00N 41°24' E 011°12'2020.1 1014.8 17.2
2015-May-16 06:00N 41°06' E 011°24'2827.6 1014.9 16.5
2015-May-16 05:00N 40°42' E 011°42'2020.2 1014.3 16.4
2015-May-16 04:00N 40°24' E 011°54'2827.7 1014.3 16.6
2015-May-16 03:00N 40°00' E 012°12'2020.2 1014.9 16.9
2015-May-16 02:00N 39°42' E 012°24'2625.7 1015.0 16.1
2015-May-16 01:00N 39°18' E 012°36'2020.3 1013.3 17.9
2015-May-16 00:00N 39°00' E 012°48'2322.8 1014.8 18.6
2015-May-15 23:00N 38°42' E 013°06'2625.8 1014.3 19.3
2015-May-15 22:00N 38°18' E 013°18'8 1.5 1013.4 19.0
2015-May-15 17:00N 38°12' E 013°24'2020.3 1007.0 30.4
2015-May-15 16:00N 38°30' E 013°12'2020.3 1005.2 26.1
2015-May-15 15:00N 38°48' E 013°00'2322.8 1006.2 23.6
2015-May-15 14:00N 39°06' E 012°42'2625.7 1004.6 22.7
2015-May-15 13:00N 39°30' E 012°30'2020.2 1003.9 22.0
2015-May-15 12:00N 39°48' E 012°18'2020.2 1003.9 21.3
2015-May-15 11:00N 40°06' E 012°06'2020.2 1003.1 21.7
2015-May-15 10:00N 40°24' E 011°54'2827.6 1005.1 21.2
2015-May-15 09:00N 40°48' E 011°36'2020.2 1004.1 20.4
2015-May-15 08:00N 41°06' E 011°24'2020.1 1005.5 20.1
2015-May-15 07:00N 41°24' E 011°12'2020.1 1006.0 19.3
2015-May-15 06:00N 41°42' E 011°00'2625.6 1005.5 19.0
2015-May-15 05:00N 42°06' E 010°48'2222.4 1005.0 19.0
2015-May-15 04:00N 42°24' E 010°30'1817.9 1005.4 19.1
2015-May-15 03:00N 42°36' E 010°12'2625.6 1005.3 19.0
2015-May-15 02:00N 43°00' E 010°00'2020.0 1006.7 19.1
2015-May-15 01:00N 43°18' E 009°48'2020.0 1005.9 19.1
2015-May-15 00:00N 43°36' E 009°36'2222.2 1006.3 18.7
2015-May-14 23:00N 43°54' E 009°18'2727.3 1010.1 18.8
2015-May-14 22:00N 44°18' E 009°00'6 1.0 1008.3 18.5
2015-May-14 16:00N 44°24' E 009°00'2019.9 1010.0 19.4
2015-May-14 15:00N 44°06' E 009°12'2727.3 1010.5 19.7
2015-May-14 14:00N 43°42' E 009°30'2222.2 1011.4 20.0
2015-May-14 13:00N 43°24' E 009°48'2020.0 1012.8 20.2
2015-May-14 12:00N 43°06' E 010°00'2424.4 1013.2 20.9
2015-May-14 11:00N 42°42' E 010°06'2525.2 1013.1 19.9
2015-May-14 10:00N 42°24' E 010°30'2020.1 1014.3 20.6
2015-May-14 09:00N 42°06' E 010°42'2222.4 1014.2 20.7
2015-May-14 08:00N 41°48' E 011°00'2625.6 1013.3 19.6
2015-May-14 07:00N 41°24' E 011°12'2020.1 1015.6 20.5
2015-May-14 06:00N 41°06' E 011°24'2827.6 1016.0 19.8
2015-May-14 05:00N 40°42' E 011°42'2020.2 1016.9 18.9
2015-May-14 04:00N 40°24' E 011°54'6822.7 1017.0 19.1
2015-May-14 01:00N 39°24' E 012°36'2625.7 1019.0 19.4
2015-May-14 00:00N 39°00' E 012°48'2020.3 1020.2 19.2
2015-May-13 23:00N 38°42' E 013°00'2322.9 1021.4 19.2
2015-May-13 22:00N 38°24' E 013°18'19 3.1 1021.9 19.6
2015-May-13 16:00N 38°06' E 013°24'2625.8 1023.3 23.4
2015-May-13 15:00N 38°30' E 013°12'2020.3 1023.3 22.4
2015-May-13 14:00N 38°48' E 013°00'2322.8 1023.4 21.0
2015-May-13 13:00N 39°06' E 012°42'2625.7 1023.6 20.8
2015-May-13 12:00N 39°30' E 012°30'2020.2 1023.7 20.8
2015-May-13 11:00N 39°48' E 012°18'2827.7 1023.8 20.2
2015-May-13 10:00N 40°12' E 012°00'2020.2 1023.8 20.1
2015-May-13 09:00N 40°30' E 011°48'2020.2 1024.1 19.9
2015-May-13 08:00N 40°48' E 011°36'2625.7 1024.3 17.3
2015-May-13 07:00N 41°12' E 011°24'2322.5 1023.9 16.1
2015-May-13 06:00N 41°30' E 011°06'2625.6 1023.1 17.4
2015-May-13 05:00N 41°54' E 010°54'2020.1 1023.1 18.4
2015-May-13 04:00N 42°12' E 010°42'2222.4 1023.0 18.6
2015-May-13 03:00N 42°30' E 010°24'2525.2 1022.8 18.8
2015-May-13 02:00N 42°48' E 010°00'1918.5 1022.7 18.8
2015-May-13 01:00N 43°06' E 009°54'2625.5 1023.3 19.0
2015-May-13 00:00N 43°30' E 009°42'2222.2 1023.3 18.8
2015-May-12 23:00N 43°48' E 009°24'2222.2 1023.4 18.6
2015-May-12 22:00N 44°06' E 009°06'19 3.1 1023.6 18.6
2015-May-12 16:00N 44°24' E 009°00'2019.9 1024.1 20.6
2015-May-12 15:00N 44°06' E 009°12'   1023.8 20.2

Dump ship's entire track history